Pahrump, Nevada Weather observations

Data are for observation ending at time listed.
 Day   Time    Ave.   Ave.  Ave.  Vector   Max.   Stn.    Total    Solar   Ave.  
  of    of     Air    Rel.  Wind   Wind    Wind   Baro.  Precip.   Rad.    Soil  
Year   Day     Temp.  Hum.  Speed  Dir.    Gust   Pres.                    Temp. 
2015   (PST)    F      %     mph   deg.    mph     mb.     in.     W/m2     F   
------------------------------------------------------------------------------
 212   17:00   97.6    19    3.2   317      7.9   923.9    0.00     119    92.5
 212   17:10   97.4    19    1.6   281      4.3   923.8    0.00       0    92.4
 212   17:20   97.1    19    1.0   221      3.4   923.7    0.00      24    92.3
 212   17:30   96.9    19    0.7   202      2.0   923.7    0.00       3    92.2
 212   17:40   96.8    19    0.5    92      1.6   923.5    0.00       0    92.1
 212   17:50   96.4    20    1.1    15      3.1   923.5    0.00       2    92.0
 212   18:00   96.1    19    0.5   321      2.0   923.5    0.00       2    91.8
 212   18:10   96.1    20    1.0   214      2.3   923.5    0.00       1    91.7
 212   18:20   95.4    21    0.8   231      1.7   923.4    0.00       2    91.6
 212   18:30   95.1    22    0.2   236      1.5   923.5    0.00      35    91.5
 212   18:40   94.8    22    0.6   356      1.8   923.4    0.00      24    91.3
 212   18:50   94.7    21    0.7    41      2.0   923.4    0.00      12    91.2
 212   19:00   94.2    22    0.0     0      0.0   923.5    0.00       1    91.1
 212   19:10   93.4    24    0.3   130      1.3   923.5    0.00       0    91.0
 212   19:20   93.3    25    0.7   161      1.6   923.5    0.00       0    90.9
 212   19:30   92.8    25    0.9   206      2.0   923.6    0.00       0    90.8
 212   19:40   92.4    25    0.3   137      1.3   923.7    0.00       0    90.6
 212   19:50   92.1    30    2.0   105      2.9   923.8    0.00       0    90.5
 212   20:00   91.9    29    2.3   100      5.0   923.9    0.00       0    90.4
 212   20:10   91.0    30    4.0    85      7.1   924.0    0.00       0    90.3
 212   20:20   90.6    28    4.8    85      8.6   924.0    0.00       0    90.2
 212   20:30   90.5    28    6.1    92      9.1   924.1    0.00       0    90.1
 212   20:40   90.6    28    3.8    95      7.2   924.1    0.00       0    90.0
 212   20:50   89.7    29    2.4   141      4.7   924.1    0.00       0    89.9
 212   21:00   89.3    30    0.5   286      2.6   924.1    0.00       0    89.8
 212   21:10   87.7    32    1.3   255      5.8   924.0    0.00       0    89.7
 212   21:20   87.4    32    2.1   202      6.2   924.0    0.00       0    89.6
 212   21:30   88.1    32    3.7   154      5.2   923.8    0.00       0    89.5
 212   21:40   88.9    30    5.1   147      8.1   923.8    0.00       0    89.3
 212   21:50   88.4    31    5.2   126      7.9   923.8    0.00       0    89.2
 212   22:00   87.8    31    4.9   128      8.2   923.8    0.00       0    89.1
 212   22:10   88.2    30    3.9   113      6.9   923.7    0.00       0    89.1
 212   22:20   87.5    31    4.4   102      7.2   923.7    0.00       0    89.0
 212   22:30   87.7    29    4.8   105      7.3   923.6    0.00       0    88.9
 212   22:40   87.8    28    5.0   104      7.6   923.7    0.00       0    88.8
 212   22:50   87.9    28    4.3   111      6.8   923.6    0.00       0    88.7
 212   23:00   87.7    28    4.2   101      6.2   923.6    0.00       0    88.7
 212   23:10   87.8    28    4.7    91      7.6   923.6    0.00       0    88.6
 212   23:20   87.8    28    4.5    92      6.9   923.5    0.00       0    88.5
 212   23:30   87.8    28    3.7    92      6.1   923.4    0.00       0    88.4
 212   23:40   87.9    28    5.5    91      8.0   923.4    0.00       0    88.4
 212   23:50   87.9    28    4.1    93      7.0   923.3    0.00       0    88.3
 213    0:00   86.9    30    2.8   272      6.2   923.3    0.00       0    88.2
 213    0:10   85.0    32    1.6   251      4.9   923.2    0.00       0    88.2
 213    0:20   83.7    34    1.2   259      2.8   923.0    0.00       0    88.1
 213    0:30   82.8    35    1.8   211      3.1   922.8    0.00       0    88.1
 213    0:40   82.8    35    1.6   204      2.7   922.8    0.00       0    88.0
 213    0:50   83.4    35    0.8   144      1.5   922.7    0.00       0    87.9
 213    1:00   83.6    35    1.7   208      3.3   922.9    0.00       0    87.8
 213    1:10   83.5    34    0.7   140      2.0   922.8    0.00       0    87.7
 213    1:20   83.8    35    1.9    98      3.4   922.7    0.00       0    87.7
 213    1:30   83.5    36    3.8    93      5.6   922.7    0.00       0    87.6
 213    1:40   83.6    34    4.8    98      6.5   922.7    0.00       0    87.5
 213    1:50   83.9    33    3.9    93      6.7   922.7    0.00       0    87.5
 213    2:00   84.1    34    1.6    85      3.9   922.8    0.00       0    87.4
 213    2:10   83.6    35    1.4   360      3.2   922.8    0.00       0    87.3
 213    2:20   83.3    34    1.7     1      4.4   922.8    0.00       0    87.2
 213    2:30   83.8    34    2.2   334      4.7   922.7    0.00       0    87.2
 213    2:40   84.7    32    1.9   312      4.0   922.8    0.00       0    87.1
 213    2:50   83.9    34    0.8   279      3.4   922.8    0.00       0    87.1
 213    3:00   82.1    37    1.5   280      4.3   922.7    0.00       0    87.0
 213    3:10   80.6    41    1.2   239      2.8   922.7    0.00       0    86.9
 213    3:20   79.8    43    1.3   242      3.0   922.6    0.00       0    86.8
 213    3:30   79.5    43    1.0   173      1.8   922.5    0.00       0    86.7
 213    3:40   80.4    42    1.3   150      2.1   922.4    0.00       0    86.7
 213    3:50   80.6    43    1.0   112      2.2   922.4    0.00       0    86.6
 213    4:00   80.5    45    1.1   127      3.1   922.4    0.00       0    86.5
 213    4:10   80.7    43    2.2   120      3.2   922.4    0.00       0    86.5
 213    4:20   81.5    40    0.9   133      2.0   922.4    0.00       0    86.4
 213    4:30   79.8    44    1.9   316      5.3   922.5    0.00       0    86.3
 213    4:40   78.7    45    0.1   320      1.0   922.6    0.00       0    86.3
 213    4:50   78.8    45    0.2    93      1.5   922.7    0.00       1    86.2
 213    5:00   79.9    44    1.2   102      2.6   922.7    0.00       3    86.1
 213    5:10   80.9    42    1.5   102      2.6   922.8    0.00       6    86.1
 213    5:20   81.5    42    1.1   158      2.5   922.9    0.00      12    86.0
 213    5:30   80.2    45    1.2   270      3.4   923.0    0.00      23    85.9
 213    5:40   78.9    46    0.9   266      2.6   923.2    0.00      39    85.9
 213    5:50   78.9    46    0.8   295      2.5   923.3    0.00      48    85.8
 213    6:00   79.5    44    0.3    59      1.6   923.4    0.00      56    85.7
 213    6:10   80.5    43    0.2   267      1.1   923.5    0.00      64    85.7
 213    6:20   81.3    42    1.7    99      2.8   923.7    0.00      66    85.7
 213    6:30   82.1    41    1.1   120      2.0   923.8    0.00      75    85.6
 213    6:40   82.7    39    1.6    96      2.5   923.9    0.00      96    85.6
 213    6:50   83.9    37    0.3   250      1.5   924.0    0.00      47    85.6
 213    7:00   84.8    37    0.6   241      3.4   924.2    0.00      53    85.6
 213    7:10   86.0    32    4.5   150      9.0   924.3    0.00     165    85.7
 213    7:20   86.9    30    6.0   140      9.9   924.5    0.00     211    85.7
 213    7:30   87.5    29    6.1   160      9.8   924.7    0.00     157    85.8
 213    7:40   88.1    29    6.4   166     10.4   924.9    0.00       1    86.0
 213    7:50   88.3    29    6.9   168      9.8   925.2    0.00       0    86.2
 213    8:00   88.9    28    6.5   168      9.8   925.3    0.00       0    86.3
 213    8:10   89.8    28    6.3   170     10.6   925.4    0.00       0    86.6
 213    8:20   90.3    27    6.2   175      9.9   925.5    0.00       0    86.8
 213    8:30   90.7    27    6.2   169      9.0   925.6    0.00     123    87.1
 213    8:40   91.6    26    5.0   193     10.5   925.7    0.00     232    87.4
 213    8:50   91.9    26    5.9   162      8.8   925.8    0.00     464    87.7
 213    9:00   91.8    26    5.9   168      9.2   925.9    0.00     258    88.0
 213    9:10   91.7    26    5.6   190      8.7   925.9    0.00     417    88.4
 213    9:20   91.8    25    5.7   171      9.3   925.8    0.00     323    88.7
 213    9:30   92.0    25    3.8   190      7.6   925.7    0.00     279    89.0
 213    9:40   92.0    25    4.5   187      9.6   925.7    0.00     299    89.2
 213    9:50   92.9    24    4.5   201      7.1   925.7    0.00     526    89.4
 213   10:00   94.4    23    4.7   166      9.1   925.9    0.00       0    89.5
 213   10:10   95.0    23    7.3   137     13.2   926.0    0.00       0    89.7
 213   10:20   95.7    22    7.0   140     11.7   926.1    0.00       0    89.9
 213   10:30   95.4    21    9.1   137     14.8   926.3    0.00       0    90.3
 213   10:40   94.9    22    9.3   140     13.9   926.4    0.00       0    90.6
 213   10:50   94.8    21    9.7   141     14.5   926.3    0.00       0    90.9
 213   11:00   95.7    20   10.2   149     18.9   926.1    0.00       0    91.1
 213   11:10   96.0    20   12.2   138     16.9   926.0    0.00       0    91.3
 213   11:20   95.9    21   12.3   135     17.5   926.0    0.00       0    91.5
 213   11:30   95.8    21   12.6   135     18.7   926.1    0.00     488    91.8
 213   11:40   95.8    21   11.7   141     20.1   926.1    0.00       0    92.1
 213   11:50   95.4    22   12.4   148     18.8   926.1    0.00       0    92.5
 213   12:00   95.1    22   12.3   148     19.6   926.0    0.00       0    92.8
 213   12:10   94.5    23   14.9   138     20.3   926.0    0.00       0    93.1
 213   12:20   94.8    22   15.1   136     20.7   925.9    0.00       0    93.4
 213   12:30   96.0    21   14.7   146     23.5   925.8    0.00       0    93.7
 213   12:40   95.1    21   14.6   144     24.0   925.8    0.00       0    93.9
 213   12:50   95.1    21   13.3   144     19.2   925.7    0.00       0    94.2
 213   13:00   94.6    21   12.6   152     19.4   925.6    0.00       0    94.4
 213   13:10   94.8    22   12.2   142     17.3   925.6    0.00       0    94.5
 213   13:20   94.2    22   11.6   148     18.4   925.4    0.00     105    94.5
 213   13:30   94.4    21   11.1   149     18.8   925.3    0.00      33    94.5
 213   13:40   94.2    21   10.0   146     17.0   925.1    0.00       0    94.5
 213   13:50   94.8    20    9.4   176     17.4   925.0    0.00       0    94.4
 213   14:00   95.3    19    8.5   162     15.0   925.0    0.00       0    94.4
 213   14:10   94.8    20    7.9   192     15.9   924.9    0.00       0    94.3
 213   14:20   95.2    19    9.0   179     17.3   924.9    0.00       0    94.4
 213   14:30   95.8    19   10.1   175     17.4   924.8    0.00       0    94.3
 213   14:40   95.4    19    8.1   178     17.2   924.9    0.00       0    94.3
 213   14:50   94.8    19    6.2   187     12.8   924.9    0.00       0    94.4
 213   15:00   95.0    19    4.9   203     12.6   924.7    0.00       0    94.4
 213   15:10   94.7    20    4.2   224      8.4   924.6    0.00       0    94.4
 213   15:20   94.0    20    4.4   211      9.7   924.6    0.00       5    94.4
 213   15:30   93.8    20    4.0   202      8.5   924.5    0.00       1    94.4
 213   15:40   93.4    21    3.1   234      8.3   924.4    0.00       1    94.3
 213   15:50   91.5    24    3.1   208     10.7   924.5    0.00       3    94.2
 213   16:00   91.3    24    5.8   160     15.3   924.6    0.00       5    94.1
 213   16:10   90.4    27    9.1   154     13.2   924.3    0.00      17    94.0
 213   16:20   90.2    26    9.1   159     13.4   923.8    0.00       0    93.8
 213   16:30   91.1    25   10.3   142     14.6   923.6    0.00       0    93.6
 213   16:40   90.9    24   10.5   135     14.2   923.7    0.00       0    93.3
 213   16:50   90.8    25    8.3   136     14.0   923.7    0.00       0    93.2

Return to Pahrump, Nevada graphs page.


Western Regional Climate Center,wrcc@dri.edu